Time;durP1;ratioP1;P1;durP2;ratioP2;P2;SDS_P1;SDS_P2;PMS_P1;PMS_P2;Temp;Humidity;BMP_temperature;BMP_pressure;BME280_temperature;BME280_humidity;BME280_pressure;Samples;Min_cycle;Max_cycle;Signal;HPM_P1;HPM_P2
2023/06/07 00:02:07;;;;;;;4.55;2.65;;;25.30;44.90;;;;;;5057339;28;20476;-69
2023/06/07 00:04:35;;;;;;;4.55;2.65;;;25.30;45.00;;;;;;5063880;28;20036;-69
2023/06/07 00:07:02;;;;;;;4.03;2.22;;;25.20;45.10;;;;;;5062883;28;20033;-69
2023/06/07 00:09:29;;;;;;;1.92;1.60;;;25.30;45.10;;;;;;5067109;28;20107;-69
2023/06/07 00:11:56;;;;;;;1.58;1.40;;;25.30;45.20;;;;;;5069941;28;20051;-69
2023/06/07 00:14:23;;;;;;;2.28;1.50;;;25.30;45.30;;;;;;5061941;28;20024;-68
2023/06/07 00:16:50;;;;;;;1.92;1.55;;;25.30;45.40;;;;;;5062199;28;20112;-69
2023/06/07 00:19:25;;;;;;;1.45;1.35;;;25.40;45.40;;;;;;5066494;28;20027;-69
2023/06/07 00:21:51;;;;;;;3.88;1.25;;;25.30;45.40;;;;;;5071056;28;20102;-69
2023/06/07 00:24:18;;;;;;;4.68;1.52;;;25.30;45.30;;;;;;5070952;28;20047;-69
2023/06/07 00:26:44;;;;;;;2.58;1.30;;;25.40;45.30;;;;;;5062275;28;20124;-69
2023/06/07 00:29:11;;;;;;;1.40;1.30;;;25.40;45.40;;;;;;5058374;28;20033;-69
2023/06/07 00:31:37;;;;;;;7.82;1.10;;;25.30;45.40;;;;;;5066677;28;20040;-69
2023/06/07 00:34:04;;;;;;;2.00;1.40;;;25.40;45.40;;;;;;5074734;28;20082;-68
2023/06/07 00:36:30;;;;;;;1.27;0.90;;;25.40;45.10;;;;;;5073412;28;20465;-69
2023/06/07 00:38:56;;;;;;;7.22;1.65;;;25.30;45.20;;;;;;5067945;28;20029;-69
2023/06/07 00:41:22;;;;;;;7.35;1.45;;;25.40;45.30;;;;;;5049075;28;20048;-70
2023/06/07 00:43:48;;;;;;;2.65;1.23;;;25.40;45.30;;;;;;5055511;28;20040;-69
2023/06/07 00:46:17;;;;;;;1.08;1.00;;;25.40;45.50;;;;;;5057417;28;20089;-69
2023/06/07 00:48:44;;;;;;;1.50;1.27;;;25.40;45.50;;;;;;5067768;28;20032;-69
2023/06/07 00:51:11;;;;;;;1.23;1.02;;;25.30;45.50;;;;;;5075034;28;20041;-69
2023/06/07 00:53:38;;;;;;;5.03;1.20;;;25.40;45.70;;;;;;5073375;28;20418;-69
2023/06/07 00:56:05;;;;;;;3.55;1.40;;;25.20;45.80;;;;;;5065820;28;20048;-71
2023/06/07 00:58:33;;;;;;;3.75;1.50;;;25.20;45.90;;;;;;5068233;28;20033;-70
2023/06/07 01:01:00;;;;;;;3.50;1.25;;;25.30;46.00;;;;;;5062272;28;20584;-70
2023/06/07 01:03:29;;;;;;;3.53;1.33;;;25.30;46.00;;;;;;5069551;28;20037;-69
2023/06/07 01:05:55;;;;;;;3.53;1.40;;;25.30;46.10;;;;;;5073001;28;20079;-68
2023/06/07 01:08:21;;;;;;;1.15;1.05;;;25.10;46.20;;;;;;5065862;28;20032;-69
2023/06/07 01:10:49;;;;;;;2.15;1.30;;;25.10;46.20;;;;;;5056418;28;21001;-69
2023/06/07 01:13:16;;;;;;;5.20;1.10;;;25.20;46.30;;;;;;5068839;28;20033;-69
2023/06/07 01:15:43;;;;;;;1.65;1.08;;;25.20;46.30;;;;;;5061995;28;20088;-69
2023/06/07 01:18:10;;;;;;;2.03;1.20;;;25.00;46.40;;;;;;5073008;28;20115;-69
2023/06/07 01:20:38;;;;;;;2.45;1.23;;;25.00;46.40;;;;;;5054455;28;20479;-69
2023/06/07 01:23:09;;;;;;;1.52;1.17;;;25.00;46.50;;;;;;5064960;28;20493;-69
2023/06/07 01:25:35;;;;;;;1.35;1.02;;;25.10;46.60;;;;;;5072572;28;20032;-69
2023/06/07 01:28:02;;;;;;;1.35;1.25;;;24.90;46.60;;;;;;5060947;28;20033;-69
2023/06/07 01:30:31;;;;;;;1.63;1.20;;;25.00;46.60;;;;;;5062498;28;21528;-69
2023/06/07 01:33:02;;;;;;;10.65;1.10;;;25.00;46.70;;;;;;5072576;28;20105;-69
2023/06/07 01:35:30;;;;;;;2.10;1.30;;;24.90;46.90;;;;;;5068621;28;20029;-69
2023/06/07 01:37:57;;;;;;;8.02;1.55;;;24.90;47.10;;;;;;5072633;28;20484;-68
2023/06/07 01:40:24;;;;;;;1.90;1.38;;;25.00;47.20;;;;;;5064364;28;20033;-69
2023/06/07 01:42:51;;;;;;;3.13;1.20;;;24.80;47.10;;;;;;5063461;28;20672;-69
2023/06/07 01:45:17;;;;;;;2.58;1.17;;;25.00;47.10;;;;;;5056390;28;20036;-69
2023/06/07 01:47:43;;;;;;;1.85;1.20;;;24.80;47.10;;;;;;5068274;28;20036;-69
2023/06/07 01:50:10;;;;;;;6.88;1.52;;;24.90;47.20;;;;;;5068533;28;20035;-69
2023/06/07 01:52:37;;;;;;;1.58;1.02;;;25.00;47.30;;;;;;5072461;28;20119;-69
2023/06/07 01:55:05;;;;;;;1.65;1.10;;;25.00;47.40;;;;;;5068212;28;20036;-69
2023/06/07 01:57:50;;;;;;;2.42;1.20;;;24.80;47.30;;;;;;5049923;28;20053;-69
2023/06/07 02:00:32;;;;;;;1.70;1.35;;;25.00;47.40;;;;;;5064660;28;20030;-69
2023/06/07 02:03:06;;;;;;;3.13;1.20;;;25.00;47.40;;;;;;5067095;28;20446;-69
2023/06/07 02:05:53;;;;;;;1.35;1.25;;;25.10;47.40;;;;;;5055458;28;20395;-69
2023/06/07 02:08:34;;;;;;;1.35;1.13;;;25.00;47.40;;;;;;5028323;28;20516;-68
2023/06/07 02:11:02;;;;;;;1.30;1.15;;;25.10;47.40;;;;;;5043863;28;20045;-69
2023/06/07 02:13:32;;;;;;;2.97;1.30;;;25.00;47.40;;;;;;5047651;28;20499;-69
2023/06/07 02:15:58;;;;;;;2.70;1.60;;;25.10;47.40;;;;;;5042867;28;20035;-69
2023/06/07 02:18:25;;;;;;;3.25;1.73;;;25.00;47.50;;;;;;5030478;28;20503;-69
2023/06/07 02:20:53;;;;;;;4.68;1.50;;;25.00;47.50;;;;;;5030459;28;20053;-69
2023/06/07 02:23:21;;;;;;;2.45;1.38;;;25.00;47.40;;;;;;5033965;28;20039;-69
2023/06/07 02:25:47;;;;;;;2.55;1.10;;;25.10;47.40;;;;;;5026587;28;20080;-70
2023/06/07 02:28:15;;;;;;;1.60;1.00;;;25.00;47.40;;;;;;5047487;28;20061;-69
2023/06/07 02:30:41;;;;;;;4.90;1.80;;;25.20;47.40;;;;;;5043152;28;20096;-70
2023/06/07 02:33:13;;;;;;;4.07;1.10;;;25.00;47.40;;;;;;5047871;28;20056;-70
2023/06/07 02:35:45;;;;;;;2.17;1.20;;;25.10;47.40;;;;;;5010449;28;20549;-69
2023/06/07 02:38:11;;;;;;;3.65;1.52;;;25.20;47.30;;;;;;5030140;28;20049;-69
2023/06/07 02:40:37;;;;;;;1.75;1.40;;;25.20;47.30;;;;;;4998801;28;20049;-68
2023/06/07 02:43:03;;;;;;;1.50;1.20;;;25.30;47.30;;;;;;5030212;28;20041;-69
2023/06/07 02:45:29;;;;;;;5.28;1.30;;;25.20;47.20;;;;;;5047587;28;20085;-69
2023/06/07 02:47:56;;;;;;;3.25;1.20;;;25.10;47.10;;;;;;5063918;28;20047;-70
2023/06/07 02:50:23;;;;;;;2.47;1.42;;;25.20;47.20;;;;;;5045030;28;20030;-69
2023/06/07 02:52:52;;;;;;;1.50;1.13;;;25.20;47.10;;;;;;5015356;28;20037;-68
2023/06/07 02:55:18;;;;;;;2.17;1.60;;;25.20;47.20;;;;;;5037974;28;20040;-69
2023/06/07 02:57:44;;;;;;;3.17;1.80;;;25.20;47.20;;;;;;5069692;28;20112;-69
2023/06/07 03:00:11;;;;;;;4.13;1.45;;;25.20;47.20;;;;;;5056944;28;20075;-70
2023/06/07 03:02:58;;;;;;;2.10;1.58;;;25.30;47.20;;;;;;5066267;28;20377;-69
2023/06/07 03:05:28;;;;;;;1.33;1.20;;;25.20;47.10;;;;;;5061091;28;20090;-69
2023/06/07 03:08:00;;;;;;;4.03;1.52;;;25.30;47.20;;;;;;5049566;28;20052;-70
2023/06/07 03:10:27;;;;;;;2.20;1.60;;;25.10;47.10;;;;;;5055052;28;20036;-69
2023/06/07 03:12:53;;;;;;;7.18;2.40;;;25.30;47.10;;;;;;5070599;28;20036;-69
2023/06/07 03:15:19;;;;;;;4.60;1.35;;;25.20;47.00;;;;;;5056664;28;20082;-69
2023/06/07 03:17:47;;;;;;;3.17;1.30;;;25.20;47.00;;;;;;5030710;28;20485;-68
2023/06/07 03:20:14;;;;;;;4.47;1.40;;;25.20;47.10;;;;;;5043038;28;20421;-70
2023/06/07 03:22:44;;;;;;;2.90;1.60;;;25.30;47.00;;;;;;5070622;28;20041;-69
2023/06/07 03:25:12;;;;;;;3.40;1.58;;;25.20;47.00;;;;;;5054156;28;20543;-70
2023/06/07 03:27:38;;;;;;;6.00;1.90;;;25.20;47.00;;;;;;5050602;28;20032;-69
2023/06/07 03:30:17;;;;;;;4.47;1.77;;;25.30;46.90;;;;;;5048708;28;20421;-69
2023/06/07 03:32:45;;;;;;;1.90;1.67;;;25.10;46.90;;;;;;5030741;28;20021;-69
2023/06/07 03:35:12;;;;;;;3.83;1.20;;;25.30;46.90;;;;;;5030373;28;20048;-69
2023/06/07 03:37:39;;;;;;;4.70;1.75;;;25.30;46.90;;;;;;5030741;28;20156;-69
2023/06/07 03:40:06;;;;;;;2.38;1.30;;;25.30;46.80;;;;;;5041218;28;20040;-69
2023/06/07 03:42:32;;;;;;;3.78;1.20;;;25.30;46.70;;;;;;5054889;28;20048;-69
2023/06/07 03:44:58;;;;;;;3.85;1.77;;;25.20;46.70;;;;;;5066420;28;20064;-69
2023/06/07 03:47:24;;;;;;;5.13;1.40;;;25.30;46.70;;;;;;5058979;28;20063;-70
2023/06/07 03:49:50;;;;;;;2.78;1.20;;;25.40;46.70;;;;;;5049227;28;20116;-70
2023/06/07 03:52:17;;;;;;;6.85;1.42;;;25.30;46.70;;;;;;5064843;28;20480;-69
2023/06/07 03:54:43;;;;;;;4.00;1.48;;;25.30;46.60;;;;;;5056773;28;20076;-69
2023/06/07 03:57:10;;;;;;;2.47;1.45;;;25.30;46.50;;;;;;5065776;28;20028;-69
2023/06/07 03:59:40;;;;;;;5.13;1.70;;;25.20;46.40;;;;;;5060805;28;20112;-69
2023/06/07 04:02:07;;;;;;;4.38;1.50;;;25.30;46.50;;;;;;5037769;28;20029;-69
2023/06/07 04:04:33;;;;;;;2.10;1.30;;;25.20;46.60;;;;;;5050938;28;20033;-68
2023/06/07 04:07:03;;;;;;;7.97;1.90;;;25.30;46.60;;;;;;5066213;28;20025;-72
2023/06/07 04:09:30;;;;;;;1.23;1.05;;;25.20;46.70;;;;;;5055939;28;20071;-75
2023/06/07 04:11:56;;;;;;;1.55;1.25;;;25.30;46.60;;;;;;5066443;28;20031;-76
2023/06/07 04:14:22;;;;;;;2.10;1.70;;;25.40;46.00;;;;;;5057276;28;20032;-75
2023/06/07 04:16:49;;;;;;;1.70;1.20;;;25.40;44.80;;;;;;5041196;28;20053;-76
2023/06/07 04:19:16;;;;;;;2.40;1.55;;;25.50;43.80;;;;;;5046295;28;20037;-75
2023/06/07 04:21:43;;;;;;;1.88;1.45;;;25.30;42.60;;;;;;5032370;28;20044;-75
2023/06/07 04:24:09;;;;;;;2.65;1.80;;;25.50;40.90;;;;;;5016089;28;20052;-76
2023/06/07 04:26:37;;;;;;;3.25;1.63;;;25.60;40.50;;;;;;5023236;28;20037;-75
2023/06/07 04:29:05;;;;;;;4.38;1.95;;;25.60;39.90;;;;;;5019754;28;20492;-75
2023/06/07 04:31:39;;;;;;;3.03;1.50;;;25.50;39.30;;;;;;5088465;28;20044;-76
2023/06/07 04:34:09;;;;;;;1.88;1.65;;;25.50;39.20;;;;;;5088740;28;20108;-75
2023/06/07 04:36:38;;;;;;;7.47;2.72;;;25.40;38.90;;;;;;5071889;28;20047;-75
2023/06/07 04:39:10;;;;;;;2.33;1.80;;;25.50;38.80;;;;;;5071870;28;20549;-75
2023/06/07 04:41:38;;;;;;;3.75;1.83;;;25.50;38.50;;;;;;5071697;28;20082;-75
2023/06/07 04:44:07;;;;;;;4.75;1.88;;;25.40;37.20;;;;;;5088806;28;20051;-74
2023/06/07 04:46:39;;;;;;;7.03;1.90;;;25.40;36.90;;;;;;5070197;28;20040;-74
2023/06/07 04:49:09;;;;;;;2.10;1.60;;;25.30;36.20;;;;;;5067104;28;20062;-74
2023/06/07 04:51:35;;;;;;;6.20;2.10;;;25.30;35.20;;;;;;5088693;28;20047;-75
2023/06/07 04:54:04;;;;;;;2.45;1.80;;;25.30;36.10;;;;;;5088456;28;20068;-73
2023/06/07 04:56:36;;;;;;;3.45;2.25;;;25.20;36.20;;;;;;5053974;28;20419;-73
2023/06/07 04:59:04;;;;;;;2.75;2.08;;;25.30;35.70;;;;;;5047437;28;20045;-75
2023/06/07 05:01:35;;;;;;;3.58;1.80;;;25.20;36.30;;;;;;5031708;28;20474;-74
2023/06/07 05:04:02;;;;;;;6.60;2.08;;;25.20;36.40;;;;;;5031853;28;20053;-74
2023/06/07 05:06:37;;;;;;;3.90;2.10;;;25.20;36.30;;;;;;5031381;28;20091;-74
2023/06/07 05:09:05;;;;;;;4.28;1.92;;;25.30;36.20;;;;;;5027811;28;20049;-76
2023/06/07 05:11:32;;;;;;;3.22;1.98;;;25.30;36.10;;;;;;5026665;28;20045;-76
2023/06/07 05:13:58;;;;;;;3.17;1.83;;;25.30;36.50;;;;;;5009561;28;20517;-76
2023/06/07 05:16:25;;;;;;;3.15;1.63;;;25.30;36.80;;;;;;5041951;28;20172;-69
2023/06/07 05:18:53;;;;;;;2.25;1.70;;;25.30;37.00;;;;;;4995466;28;20065;-68
2023/06/07 05:21:20;;;;;;;4.60;2.03;;;25.20;36.70;;;;;;5029010;28;20142;-68
2023/06/07 05:23:47;;;;;;;5.45;2.00;;;25.30;36.50;;;;;;5034415;28;20487;-68
2023/06/07 05:26:13;;;;;;;6.22;2.10;;;25.30;36.20;;;;;;5024586;28;20053;-68
2023/06/07 05:28:39;;;;;;;2.88;1.38;;;25.20;37.60;;;;;;5014844;28;20053;-68
2023/06/07 05:31:05;;;;;;;2.67;1.85;;;25.20;37.40;;;;;;5031497;28;20045;-68
2023/06/07 05:33:33;;;;;;;2.33;1.60;;;25.10;36.90;;;;;;5014798;28;20049;-68
2023/06/07 05:36:00;;;;;;;5.43;1.80;;;25.20;37.60;;;;;;5026503;28;20124;-69
2023/06/07 05:38:26;;;;;;;7.78;2.13;;;25.20;36.90;;;;;;5054414;28;20037;-68
2023/06/07 05:40:55;;;;;;;3.22;1.88;;;25.20;38.20;;;;;;5071317;28;20423;-68
2023/06/07 05:43:21;;;;;;;1.70;1.60;;;25.20;37.20;;;;;;5054580;28;20056;-68
2023/06/07 05:45:49;;;;;;;2.55;1.73;;;25.10;37.80;;;;;;5037349;28;20396;-68
2023/06/07 05:48:15;;;;;;;3.20;1.45;;;25.10;37.90;;;;;;5053830;28;20036;-68
2023/06/07 05:50:41;;;;;;;7.90;1.60;;;25.30;37.70;;;;;;5054070;28;20036;-68
2023/06/07 05:53:07;;;;;;;3.25;1.77;;;25.30;38.30;;;;;;5070925;28;20146;-68
2023/06/07 05:55:33;;;;;;;4.40;1.90;;;25.20;38.80;;;;;;5056322;28;20041;-68
2023/06/07 05:58:03;;;;;;;3.45;1.95;;;25.20;39.10;;;;;;5053051;28;20032;-68
2023/06/07 06:00:30;;;;;;;3.53;1.90;;;25.20;38.20;;;;;;5053096;28;20396;-68
2023/06/07 06:02:56;;;;;;;1.38;1.27;;;25.10;37.50;;;;;;5053087;28;20033;-67
2023/06/07 06:05:27;;;;;;;5.95;1.88;;;25.30;39.30;;;;;;5053103;28;20025;-68
2023/06/07 06:07:55;;;;;;;3.30;1.60;;;25.20;38.70;;;;;;5051859;28;20451;-68
2023/06/07 06:10:22;;;;;;;7.20;2.10;;;25.30;38.80;;;;;;5053140;28;20073;-69
2023/06/07 06:12:48;;;;;;;2.80;1.77;;;25.20;37.80;;;;;;5053308;28;20033;-68
2023/06/07 06:15:15;;;;;;;1.98;1.40;;;25.30;39.50;;;;;;5053353;28;20025;-68
2023/06/07 06:17:41;;;;;;;3.05;1.70;;;25.20;39.10;;;;;;5053114;28;20468;-68
2023/06/07 06:20:08;;;;;;;3.47;2.35;;;25.30;39.10;;;;;;5051777;28;20114;-69
2023/06/07 06:22:34;;;;;;;3.08;1.60;;;25.30;38.70;;;;;;5052767;28;20436;-69
2023/06/07 06:25:01;;;;;;;1.63;1.45;;;25.30;38.70;;;;;;5053013;28;20063;-69
2023/06/07 06:27:27;;;;;;;9.07;1.80;;;25.30;39.10;;;;;;5052716;28;20031;-68
2023/06/07 06:29:53;;;;;;;3.58;1.45;;;25.30;39.10;;;;;;5052959;28;20028;-68
2023/06/07 06:32:19;;;;;;;2.40;1.70;;;25.30;37.70;;;;;;5052816;28;20037;-68
2023/06/07 06:34:45;;;;;;;4.28;1.95;;;25.20;38.90;;;;;;5052600;28;20040;-68
2023/06/07 06:37:11;;;;;;;3.72;2.30;;;25.30;39.50;;;;;;5052830;28;20028;-68
2023/06/07 06:39:37;;;;;;;5.72;1.67;;;25.20;39.20;;;;;;5052794;28;20063;-68
2023/06/07 06:42:03;;;;;;;8.00;2.22;;;25.20;39.70;;;;;;5052715;28;20120;-69
2023/06/07 06:44:46;;;;;;;5.07;2.22;;;25.20;38.70;;;;;;5051389;28;20040;-68
2023/06/07 06:47:14;;;;;;;5.85;1.60;;;25.30;39.00;;;;;;5052508;28;20040;-68
2023/06/07 06:49:40;;;;;;;2.65;1.60;;;25.20;39.60;;;;;;5052575;28;20076;-68
2023/06/07 06:52:07;;;;;;;3.45;1.50;;;25.20;39.60;;;;;;5052403;28;20049;-68
2023/06/07 06:54:33;;;;;;;2.83;1.85;;;25.30;40.40;;;;;;5052346;28;20041;-69
2023/06/07 06:56:59;;;;;;;5.13;1.65;;;25.30;39.10;;;;;;5052255;28;20110;-68
2023/06/07 06:59:25;;;;;;;2.65;1.63;;;25.30;40.50;;;;;;5052508;28;20291;-69
2023/06/07 07:01:52;;;;;;;4.00;1.60;;;25.30;39.00;;;;;;5052673;28;20469;-68
2023/06/07 07:04:18;;;;;;;3.90;1.80;;;25.40;40.70;;;;;;5052000;28;20134;-69
2023/06/07 07:06:44;;;;;;;2.65;1.58;;;25.40;40.40;;;;;;5052186;28;20064;-68
2023/06/07 07:09:12;;;;;;;4.03;1.55;;;25.30;41.00;;;;;;5052186;28;20044;-68
2023/06/07 07:11:38;;;;;;;6.93;2.22;;;25.30;41.00;;;;;;5051639;28;20485;-68
2023/06/07 07:14:04;;;;;;;3.63;1.70;;;25.30;40.40;;;;;;5050894;28;20037;-68
2023/06/07 07:16:31;;;;;;;2.88;1.35;;;25.40;40.00;;;;;;5052148;28;20032;-69
2023/06/07 07:18:57;;;;;;;4.93;1.20;;;25.50;40.50;;;;;;5051917;28;20029;-68
2023/06/07 07:21:24;;;;;;;2.63;1.67;;;25.40;40.40;;;;;;5051749;28;20479;-69
2023/06/07 07:23:50;;;;;;;5.80;1.70;;;25.30;40.20;;;;;;5051656;28;20032;-68
2023/06/07 07:26:16;;;;;;;3.60;1.98;;;25.40;40.90;;;;;;5051544;28;20428;-68
2023/06/07 07:28:44;;;;;;;8.77;1.75;;;25.40;40.80;;;;;;5051569;28;20579;-68
2023/06/07 07:31:10;;;;;;;2.17;1.45;;;25.30;40.30;;;;;;5051722;28;20047;-67
2023/06/07 07:33:36;;;;;;;2.92;1.40;;;25.40;40.70;;;;;;5051837;28;20041;-68
2023/06/07 07:36:03;;;;;;;5.82;1.67;;;25.40;40.60;;;;;;5051856;28;20040;-68
2023/06/07 07:38:32;;;;;;;4.53;1.63;;;25.50;40.40;;;;;;5051666;28;20094;-68
2023/06/07 07:40:59;;;;;;;7.63;1.67;;;25.30;41.10;;;;;;5033458;28;20033;-68
2023/06/07 07:43:25;;;;;;;1.83;1.50;;;25.30;41.30;;;;;;5048775;28;20051;-68
2023/06/07 07:45:51;;;;;;;3.85;1.80;;;25.40;41.50;;;;;;5049163;28;20052;-68
2023/06/07 07:48:17;;;;;;;2.17;1.60;;;25.50;41.50;;;;;;5031975;28;20049;-68
2023/06/07 07:50:43;;;;;;;2.13;1.30;;;25.50;41.40;;;;;;5048848;28;20067;-68
2023/06/07 07:53:09;;;;;;;3.13;1.52;;;25.30;41.30;;;;;;5048696;28;20059;-69
2023/06/07 07:55:35;;;;;;;2.63;1.88;;;25.30;39.90;;;;;;5048843;28;20482;-68
2023/06/07 07:58:01;;;;;;;2.95;1.75;;;25.30;40.90;;;;;;5048612;28;20440;-68
2023/06/07 08:00:27;;;;;;;4.20;1.40;;;25.50;41.60;;;;;;5048808;28;20037;-69
2023/06/07 08:02:53;;;;;;;3.67;1.80;;;25.40;41.70;;;;;;5048855;28;20078;-69
2023/06/07 08:05:19;;;;;;;4.05;1.92;;;25.50;41.70;;;;;;5048630;28;20048;-69
2023/06/07 08:07:45;;;;;;;2.97;1.58;;;25.40;41.70;;;;;;5015617;28;20053;-69
2023/06/07 08:10:11;;;;;;;6.50;1.85;;;25.50;41.70;;;;;;5048690;28;20681;-68
2023/06/07 08:12:39;;;;;;;7.13;1.60;;;25.50;40.00;;;;;;5032318;28;20032;-68
2023/06/07 08:15:06;;;;;;;8.85;2.00;;;25.30;41.10;;;;;;5050543;28;20060;-68
2023/06/07 08:17:33;;;;;;;2.90;1.70;;;25.30;41.50;;;;;;5049949;28;20107;-68
2023/06/07 08:20:04;;;;;;;3.92;1.83;;;25.50;41.80;;;;;;5050957;28;20090;-68
2023/06/07 08:22:30;;;;;;;3.55;1.98;;;25.50;40.80;;;;;;5051190;28;20033;-68
2023/06/07 08:24:56;;;;;;;2.20;1.80;;;25.40;39.50;;;;;;5050950;28;20452;-68
2023/06/07 08:27:22;;;;;;;2.13;1.77;;;25.40;41.60;;;;;;5050997;28;20115;-69
2023/06/07 08:29:48;;;;;;;2.72;2.00;;;25.40;41.90;;;;;;5051307;28;20021;-68
2023/06/07 08:32:14;;;;;;;3.40;1.77;;;25.40;41.90;;;;;;5050668;28;20067;-69
2023/06/07 08:34:40;;;;;;;1.45;1.13;;;25.40;42.00;;;;;;5051034;28;20476;-69
2023/06/07 08:37:06;;;;;;;2.85;1.40;;;25.40;42.10;;;;;;5051108;28;20025;-68
2023/06/07 08:39:32;;;;;;;2.22;1.67;;;25.40;42.10;;;;;;5050836;28;20048;-68
2023/06/07 08:41:58;;;;;;;2.28;1.95;;;25.50;41.50;;;;;;5049748;28;20033;-68
2023/06/07 08:44:24;;;;;;;2.28;0.98;;;25.50;39.60;;;;;;5050810;28;20167;-68
2023/06/07 08:46:52;;;;;;;2.67;1.65;;;25.40;40.20;;;;;;5050722;28;20526;-68
2023/06/07 08:49:18;;;;;;;2.67;1.60;;;25.40;41.90;;;;;;5049396;28;20063;-68
2023/06/07 08:51:46;;;;;;;8.80;1.60;;;25.40;41.00;;;;;;5050981;28;20064;-69
2023/06/07 08:54:15;;;;;;;2.92;1.73;;;25.50;42.10;;;;;;5054694;28;20029;-68
2023/06/07 08:56:42;;;;;;;3.40;1.77;;;25.40;42.20;;;;;;5054868;28;20037;-69
2023/06/07 08:59:08;;;;;;;10.35;1.40;;;25.50;42.10;;;;;;5054413;28;20033;-69
2023/06/07 09:01:35;;;;;;;2.60;1.92;;;25.40;42.20;;;;;;5054673;28;20116;-68
2023/06/07 09:04:01;;;;;;;2.45;1.40;;;25.60;40.40;;;;;;5054450;28;20037;-69
2023/06/07 09:06:27;;;;;;;1.50;1.40;;;25.50;41.40;;;;;;5054644;28;20513;-68
2023/06/07 09:08:53;;;;;;;3.88;1.48;;;25.40;41.80;;;;;;5054404;28;20029;-68
2023/06/07 09:11:20;;;;;;;7.15;1.70;;;25.50;41.90;;;;;;5054290;28;20507;-68
2023/06/07 09:13:46;;;;;;;4.35;1.70;;;25.50;42.20;;;;;;5054566;28;20025;-68
2023/06/07 09:16:13;;;;;;;3.17;1.67;;;25.50;42.30;;;;;;5054129;28;20166;-68
2023/06/07 09:18:53;;;;;;;6.43;1.55;;;25.50;42.00;;;;;;5053694;28;20513;-68
2023/06/07 09:21:26;;;;;;;2.28;1.48;;;25.50;42.30;;;;;;5053766;28;20052;-68
2023/06/07 09:23:54;;;;;;;2.53;1.70;;;25.40;42.40;;;;;;5052725;28;20044;-68
2023/06/07 09:26:22;;;;;;;2.10;1.40;;;25.30;41.50;;;;;;5054508;28;20033;-68
2023/06/07 09:28:49;;;;;;;3.13;1.70;;;25.30;42.50;;;;;;5054086;28;20048;-69
2023/06/07 09:31:37;;;;;;;3.80;1.60;;;25.40;41.80;;;;;;5053916;28;20029;-68
2023/06/07 09:34:19;;;;;;;2.17;1.30;;;25.50;42.20;;;;;;5053899;28;20036;-68
2023/06/07 09:36:57;;;;;;;5.32;1.70;;;25.40;41.20;;;;;;5054126;28;20029;-68
2023/06/07 09:39:25;;;;;;;5.75;1.48;;;25.40;40.20;;;;;;5053791;28;20087;-68
2023/06/07 09:41:52;;;;;;;7.63;1.70;;;25.30;41.90;;;;;;5054040;28;20761;-68
2023/06/07 09:44:23;;;;;;;1.08;0.95;;;25.70;40.00;;;;;;5068093;28;20065;-68
2023/06/07 09:46:51;;;;;;;1.40;1.27;;;25.50;42.40;;;;;;5053856;28;20635;-68
2023/06/07 09:49:43;;;;;;;1.90;1.70;;;25.50;42.50;;;;;;5053557;28;20060;-68
2023/06/07 09:52:16;;;;;;;2.30;1.20;;;25.30;42.00;;;;;;5011588;28;20049;-68
2023/06/07 09:54:45;;;;;;;6.25;1.60;;;25.50;42.40;;;;;;5011545;28;20478;-69
2023/06/07 09:57:32;;;;;;;6.22;1.90;;;25.40;40.50;;;;;;5011269;28;20038;-68
2023/06/07 10:00:14;;;;;;;4.65;1.80;;;25.50;42.30;;;;;;5011074;28;20105;-69
2023/06/07 10:02:44;;;;;;;8.95;2.00;;;25.50;41.40;;;;;;5011040;28;20057;-68
2023/06/07 10:05:15;;;;;;;7.43;1.92;;;25.40;41.20;;;;;;5011430;28;20037;-69
2023/06/07 10:07:55;;;;;;;2.75;1.73;;;25.40;41.90;;;;;;5011402;28;20509;-68
2023/06/07 10:10:24;;;;;;;2.05;1.38;;;25.50;41.70;;;;;;5011110;28;20064;-68
2023/06/07 10:12:51;;;;;;;3.72;1.55;;;25.40;42.50;;;;;;4994901;28;20034;-68
2023/06/07 10:15:25;;;;;;;3.60;1.60;;;25.40;42.60;;;;;;4994837;28;20053;-68
2023/06/07 10:18:04;;;;;;;4.13;1.77;;;25.50;42.40;;;;;;5011185;28;20038;-68
2023/06/07 10:20:35;;;;;;;3.20;1.35;;;25.30;41.70;;;;;;5010749;28;20576;-68
2023/06/07 10:23:07;;;;;;;4.10;1.58;;;25.30;42.80;;;;;;5010707;28;20533;-69
2023/06/07 10:25:39;;;;;;;2.63;1.48;;;25.30;42.80;;;;;;5010838;28;20084;-68
2023/06/07 10:28:14;;;;;;;2.45;1.67;;;25.40;42.70;;;;;;4997004;28;20092;-69
2023/06/07 10:30:55;;;;;;;1.95;1.35;;;25.40;42.90;;;;;;5014154;28;20055;-69
2023/06/07 10:33:25;;;;;;;1.08;1.00;;;25.40;42.90;;;;;;5030290;28;20037;-69
2023/06/07 10:35:51;;;;;;;5.63;1.80;;;25.50;42.90;;;;;;5030572;28;20026;-68
2023/06/07 10:38:18;;;;;;;1.42;1.02;;;25.50;42.30;;;;;;5030348;28;20079;-68
2023/06/07 10:40:44;;;;;;;2.13;1.58;;;25.50;42.80;;;;;;5024054;28;20401;-69
2023/06/07 10:43:10;;;;;;;2.47;1.80;;;25.60;42.90;;;;;;5030290;28;20045;-69
2023/06/07 10:45:36;;;;;;;7.47;1.70;;;25.40;42.80;;;;;;5030079;28;20060;-69
2023/06/07 10:48:32;;;;;;;3.00;1.63;;;25.60;42.70;;;;;;5030349;28;20064;-68
2023/06/07 10:50:58;;;;;;;3.20;1.50;;;25.50;42.80;;;;;;5013754;28;20430;-69
2023/06/07 10:53:25;;;;;;;0.45;0.45;;;25.40;42.20;;;;;;5029970;28;20041;-68
2023/06/07 10:55:51;;;;;;;2.42;1.45;;;25.60;42.80;;;;;;5030164;28;20033;-68
2023/06/07 10:58:32;;;;;;;1.73;1.63;;;25.30;42.60;;;;;;5030233;28;20120;-69
2023/06/07 11:01:22;;;;;;;2.00;1.50;;;25.40;42.90;;;;;;5032594;28;20543;-68
2023/06/07 11:03:48;;;;;;;2.38;1.67;;;25.40;41.00;;;;;;5031139;28;20032;-69
2023/06/07 11:06:14;;;;;;;2.72;1.60;;;25.40;42.10;;;;;;5032423;28;20045;-68
2023/06/07 11:08:40;;;;;;;5.82;1.60;;;25.30;42.60;;;;;;5032033;28;20060;-69
2023/06/07 11:11:40;;;;;;;2.50;1.40;;;25.40;41.70;;;;;;5032191;28;20481;-68
2023/06/07 11:14:06;;;;;;;1.83;1.38;;;25.50;43.00;;;;;;5047003;28;20467;-68
2023/06/07 11:16:32;;;;;;;3.70;1.17;;;25.40;43.00;;;;;;5051397;28;20119;-68
2023/06/07 11:19:13;;;;;;;3.53;1.50;;;25.50;43.00;;;;;;5050302;28;20045;-68
2023/06/07 11:21:55;;;;;;;1.60;1.10;;;25.50;42.90;;;;;;5052470;28;20057;-68
2023/06/07 11:24:22;;;;;;;2.50;1.70;;;25.50;42.80;;;;;;5051774;28;20065;-69
2023/06/07 11:26:50;;;;;;;6.72;2.40;;;25.50;43.00;;;;;;5051923;28;20041;-69
2023/06/07 11:29:17;;;;;;;2.38;1.67;;;25.40;42.90;;;;;;5051017;28;20427;-69
2023/06/07 11:32:07;;;;;;;2.10;1.50;;;25.40;43.00;;;;;;5052052;28;20037;-69
2023/06/07 11:34:33;;;;;;;7.68;1.95;;;25.50;43.00;;;;;;5051367;28;20045;-68
2023/06/07 11:37:10;;;;;;;2.63;1.10;;;25.50;42.70;;;;;;5051621;28;20074;-68
2023/06/07 11:39:36;;;;;;;3.00;1.73;;;25.50;42.50;;;;;;5051644;28;20044;-68
2023/06/07 11:42:03;;;;;;;2.00;1.70;;;25.50;42.30;;;;;;5051756;28;20516;-68
2023/06/07 11:44:29;;;;;;;1.60;1.08;;;25.50;41.90;;;;;;5051274;28;20045;-68
2023/06/07 11:46:56;;;;;;;4.18;1.80;;;25.50;42.30;;;;;;5051586;28;20047;-68
2023/06/07 11:49:25;;;;;;;3.47;1.73;;;25.50;41.30;;;;;;5049969;28;20033;-69
2023/06/07 11:51:56;;;;;;;2.45;1.50;;;25.40;41.50;;;;;;5050275;28;20097;-69
2023/06/07 11:54:25;;;;;;;3.85;1.73;;;25.40;42.60;;;;;;5051219;28;20032;-69
2023/06/07 11:56:53;;;;;;;3.42;1.88;;;25.40;42.50;;;;;;5051361;28;20033;-68
2023/06/07 11:59:23;;;;;;;4.32;1.60;;;25.50;42.40;;;;;;5049892;28;20036;-69
2023/06/07 12:01:53;;;;;;;2.78;0.90;;;25.30;43.00;;;;;;5065726;28;20254;-69
2023/06/07 12:04:21;;;;;;;2.63;1.50;;;25.40;42.50;;;;;;5051092;28;20507;-68
2023/06/07 12:06:49;;;;;;;8.02;1.17;;;25.50;43.20;;;;;;5051081;28;20059;-68
2023/06/07 12:09:18;;;;;;;1.92;1.73;;;25.40;43.00;;;;;;5051073;28;20043;-68
2023/06/07 12:11:45;;;;;;;5.07;1.60;;;25.50;43.30;;;;;;5050208;28;20037;-68
2023/06/07 12:14:11;;;;;;;5.72;1.65;;;25.40;43.30;;;;;;5050017;28;20044;-69
2023/06/07 12:16:38;;;;;;;1.25;1.15;;;25.70;43.20;;;;;;5051336;28;20040;-69
2023/06/07 12:19:05;;;;;;;1.73;1.60;;;25.50;43.30;;;;;;5050983;28;20416;-69
2023/06/07 12:21:31;;;;;;;4.60;1.23;;;25.40;43.30;;;;;;5049783;28;20453;-69
2023/06/07 12:24:01;;;;;;;1.40;1.05;;;25.50;43.20;;;;;;5050928;28;20033;-68
2023/06/07 12:26:27;;;;;;;3.13;2.28;;;25.60;43.00;;;;;;5053391;28;20067;-68
2023/06/07 12:28:53;;;;;;;2.08;1.50;;;25.50;41.40;;;;;;5057655;28;20044;-69
2023/06/07 12:31:19;;;;;;;1.95;1.63;;;25.60;42.90;;;;;;5057516;28;20024;-69
2023/06/07 12:33:57;;;;;;;2.17;1.20;;;25.50;43.00;;;;;;5057648;28;20467;-69
2023/06/07 12:36:26;;;;;;;1.58;1.30;;;25.60;43.20;;;;;;5057540;28;20090;-69
2023/06/07 12:38:53;;;;;;;2.60;1.52;;;25.50;43.20;;;;;;5056581;28;20043;-69
2023/06/07 12:41:23;;;;;;;1.55;1.02;;;25.60;43.00;;;;;;5057700;28;20029;-69
2023/06/07 12:43:49;;;;;;;2.15;1.33;;;25.40;43.30;;;;;;5057605;28;20501;-69
2023/06/07 12:46:15;;;;;;;2.67;1.58;;;25.50;43.20;;;;;;5057152;28;20037;-69
2023/06/07 12:48:41;;;;;;;1.95;1.63;;;25.40;42.90;;;;;;5056193;28;20029;-69
2023/06/07 12:51:08;;;;;;;1.70;1.60;;;25.50;43.30;;;;;;5057244;28;20062;-68
2023/06/07 12:53:35;;;;;;;4.13;1.77;;;25.40;43.30;;;;;;5057333;28;20107;-68
2023/06/07 12:56:01;;;;;;;2.00;1.40;;;25.40;41.90;;;;;;5057582;28;20025;-69